Главная страница
METAR-TAF:

METAR-TAF

Аэропорты :

Ängelholm–Helsingborg

Хельсингборг, Швеция

широта: 56-17-46N, долгота: 012-50-50E, высота над уровнем моря: 21 м

Текущие метеонаблюдения

Эта сводка был подготовлена 32 минут назад, в 06:50 UTC
Ветер 8 Узел от южный-юго-западный
Температура 4°C
Влажность 93%
Давление 1013 hPa
Видимость: 9000 м
дымка

METAR: ESTA 170650Z AUTO 20008KT 9000 BR BKN014/// 04/03 Q1013

Время: 08:22 (07:22 UTC)

Прогноз

Эта сводка был подготовлена 20 часа и 10 минут назад, в 11:12 UTC
Прогноз действительный с 16-го 12 UTC до 16-го 16 UTC
Ветер 14 Узел от восточно-юго-восточный
Видимость: 3000 м
Рассеянная облачность на высоте 800 фута
дождь, Морось, дымка
временами
С 16-го 12 UTC до 16-го 16 UTC
Видимость: 8000 м
Рассеянная облачность на высоте 1500 фута

TAF: ESTA 161112Z 1612/1616 12014KT 3000 RADZ BR BKN008 TEMPO 1612/1616 8000 NSW BKN015

Метеонаблюдения и прогнозы для более 4000 аэропортов (сводки METAR и TAF).

Имеющиеся станции представлены на карте желтыми и красными точками.

Чтобы увидеть название станции, наведите на нее мышь.

Затем щелкните, чтобы увидеть метеонаблюдения и метеопрогнозы.

Управление картой: чтобы увеличить масштаб, щелкните зеленые кнопки с черным крестиком; чтобы уменьшить масштаб, щелкните зеленую кнопку с тире; для просмотра соседних карт щелкайте зеленые стрелки.


METAR-TAF: